Time;durP1;ratioP1;P1;durP2;ratioP2;P2;SDS_P1;SDS_P2;PMS_P1;PMS_P2;Temp;Humidity;BMP_temperature;BMP_pressure;BME280_temperature;BME280_humidity;BME280_pressure;Samples;Min_cycle;Max_cycle;Signal;HPM_P1;HPM_P2
2022/10/02 00:02:38;;;;;;;13.15;2.60;;;11.30;99.90;;;;;;5003979;28;20034;-78
2022/10/02 00:05:25;;;;;;;17.45;3.00;;;11.30;99.90;;;;;;5020294;28;20025;-77
2022/10/02 00:08:17;;;;;;;21.77;3.65;;;11.40;99.90;;;;;;5004765;28;20033;-78
2022/10/02 00:11:02;;;;;;;15.80;3.75;;;11.30;99.90;;;;;;5007083;28;20029;-77
2022/10/02 00:13:48;;;;;;;15.20;4.30;;;11.40;99.90;;;;;;5018250;28;20045;-78
2022/10/02 00:16:28;;;;;;;19.42;2.97;;;11.40;99.90;;;;;;5007946;28;20029;-78
2022/10/02 00:18:55;;;;;;;19.77;3.72;;;11.40;99.90;;;;;;5002009;28;20037;-77
2022/10/02 00:21:37;;;;;;;16.50;3.45;;;11.40;99.90;;;;;;5006437;28;20052;-77
2022/10/02 00:24:06;;;;;;;17.67;3.25;;;11.50;99.90;;;;;;5008646;28;20053;-77
2022/10/02 00:26:40;;;;;;;16.25;3.42;;;11.40;99.90;;;;;;4990513;28;20030;-77
2022/10/02 00:29:43;;;;;;;13.70;2.97;;;11.40;99.90;;;;;;5006135;28;20044;-77
2022/10/02 00:32:30;;;;;;;20.13;3.75;;;11.40;99.90;;;;;;4998250;28;20030;-77
2022/10/02 00:35:14;;;;;;;10.45;3.30;;;11.40;99.90;;;;;;5008023;28;20029;-77
2022/10/02 00:37:58;;;;;;;16.20;2.70;;;11.40;99.90;;;;;;5021102;28;20501;-77
2022/10/02 00:41:02;;;;;;;9.73;2.70;;;11.40;99.90;;;;;;5008330;28;20123;-77
2022/10/02 00:43:38;;;;;;;10.77;2.53;;;11.40;99.90;;;;;;4999538;28;20038;-77
2022/10/02 00:46:25;;;;;;;17.23;3.53;;;11.40;99.90;;;;;;4998247;28;20128;-77
2022/10/02 00:49:13;;;;;;;18.13;2.95;;;11.40;99.90;;;;;;5020429;28;20018;-77
2022/10/02 00:51:51;;;;;;;17.10;2.40;;;11.40;99.90;;;;;;4987974;28;20521;-77
2022/10/02 00:54:54;;;;;;;13.82;2.30;;;11.40;99.90;;;;;;5005011;28;20034;-77
2022/10/02 00:57:36;;;;;;;10.85;2.33;;;11.40;99.90;;;;;;5000064;28;20508;-77
2022/10/02 01:00:12;;;;;;;10.88;2.80;;;11.40;99.90;;;;;;5004221;28;20401;-77
2022/10/02 01:03:06;;;;;;;11.77;2.80;;;11.40;99.90;;;;;;5005489;28;20025;-77
2022/10/02 01:05:33;;;;;;;14.93;2.60;;;11.40;99.90;;;;;;5021070;28;20025;-77
2022/10/02 01:08:00;;;;;;;13.70;2.75;;;11.40;99.90;;;;;;5007671;28;20490;-77
2022/10/02 01:10:27;;;;;;;14.30;2.35;;;11.30;99.90;;;;;;5006695;28;20044;-77
2022/10/02 01:12:54;;;;;;;10.32;2.58;;;11.30;99.90;;;;;;5004557;28;20462;-77
2022/10/02 01:15:23;;;;;;;10.13;2.88;;;11.30;99.90;;;;;;5005199;28;20058;-76
2022/10/02 01:17:54;;;;;;;17.02;3.00;;;11.30;99.90;;;;;;4990410;28;20105;-77
2022/10/02 01:20:35;;;;;;;12.70;2.78;;;11.30;99.90;;;;;;5008467;28;20029;-76
2022/10/02 01:23:06;;;;;;;;;;;11.30;99.90;;;;;;5002515;28;20068;-77
2022/10/02 01:25:33;;;;;;;14.93;2.80;;;11.30;99.90;;;;;;5020119;28;19916;-77
2022/10/02 01:27:58;;;;;;;8.82;2.20;;;11.40;99.90;;;;;;5005021;28;20029;-76
2022/10/02 01:30:24;;;;;;;14.98;2.75;;;11.40;99.90;;;;;;4985180;28;20453;-77
2022/10/02 01:32:56;;;;;;;12.55;2.78;;;11.40;99.90;;;;;;5002264;28;20154;-77
2022/10/02 01:35:26;;;;;;;18.65;3.35;;;11.40;99.90;;;;;;4995053;28;20029;-77
2022/10/02 01:37:53;;;;;;;14.27;2.80;;;11.40;99.90;;;;;;5014488;28;20025;-76
2022/10/02 01:40:33;;;;;;;17.23;3.45;;;11.50;99.90;;;;;;5004111;28;20076;-77
2022/10/02 01:43:08;;;;;;;14.07;3.45;;;11.50;99.90;;;;;;5005524;28;20032;-77
2022/10/02 01:45:56;;;;;;;11.48;2.50;;;11.50;99.90;;;;;;5007298;28;20049;-76
2022/10/02 01:49:00;;;;;;;10.55;2.72;;;11.50;99.90;;;;;;5005961;28;20183;-77
2022/10/02 01:51:35;;;;;;;12.13;2.25;;;11.50;99.90;;;;;;5007379;28;20061;-77
2022/10/02 01:54:30;;;;;;;15.05;3.47;;;11.60;99.90;;;;;;5006453;28;20026;-77
2022/10/02 01:57:02;;;;;;;8.55;2.75;;;11.60;99.90;;;;;;5018555;28;20060;-77
2022/10/02 01:59:52;;;;;;;8.50;2.70;;;11.50;99.90;;;;;;5005154;28;20022;-77
2022/10/02 02:02:23;;;;;;;9.85;2.88;;;11.60;99.90;;;;;;5008002;28;20042;-77
2022/10/02 02:04:53;;;;;;;;;;;11.60;99.90;;;;;;5006373;28;20401;-77
2022/10/02 02:07:38;;;;;;;7.28;2.67;;;11.50;99.90;;;;;;5005319;28;20301;-77
2022/10/02 02:10:23;;;;;;;8.73;2.55;;;11.50;99.90;;;;;;4987660;28;20034;-76
2022/10/02 02:13:00;;;;;;;8.43;2.45;;;11.50;99.90;;;;;;5004215;28;20112;-77
2022/10/02 02:15:39;;;;;;;14.75;3.00;;;11.50;99.90;;;;;;5000232;28;20049;-77
2022/10/02 02:18:07;;;;;;;14.48;2.58;;;11.50;99.90;;;;;;4990807;28;20029;-77
2022/10/02 02:20:46;;;;;;;9.68;2.65;;;11.50;99.90;;;;;;5006134;28;20524;-77
2022/10/02 02:23:16;;;;;;;10.77;2.90;;;11.50;99.90;;;;;;5006698;28;20037;-77
2022/10/02 02:25:44;;;;;;;16.33;3.33;;;11.50;99.90;;;;;;5011100;28;20033;-77
2022/10/02 02:28:13;;;;;;;10.05;2.85;;;11.50;99.90;;;;;;5006632;28;20121;-77
2022/10/02 02:30:44;;;;;;;8.40;2.33;;;11.50;99.90;;;;;;5009532;28;20033;-77
2022/10/02 02:33:17;;;;;;;9.05;2.65;;;11.50;99.90;;;;;;4991015;28;20026;-77
2022/10/02 02:35:48;;;;;;;8.00;2.65;;;11.50;99.90;;;;;;5010156;28;20021;-77
2022/10/02 02:38:33;;;;;;;8.48;2.35;;;11.50;99.90;;;;;;5010430;28;20022;-77
2022/10/02 02:41:04;;;;;;;15.27;3.47;;;11.50;99.90;;;;;;5005459;28;20030;-76
2022/10/02 02:43:29;;;;;;;;;;;11.40;99.90;;;;;;5010649;28;20037;-76
2022/10/02 02:46:06;;;;;;;14.77;3.63;;;11.40;99.90;;;;;;5009326;28;20333;-78
2022/10/02 02:48:38;;;;;;;12.95;2.85;;;11.30;99.90;;;;;;5007555;28;20398;-77
2022/10/02 02:51:29;;;;;;;10.60;3.40;;;11.30;99.90;;;;;;5007821;28;20018;-77
2022/10/02 02:54:05;;;;;;;16.20;3.55;;;11.30;99.90;;;;;;5009073;28;20038;-77
2022/10/02 02:56:32;;;;;;;12.52;3.45;;;11.30;99.90;;;;;;4994258;28;20061;-77
2022/10/02 02:59:13;;;;;;;11.82;3.28;;;11.30;99.90;;;;;;5012860;28;20080;-77
2022/10/02 03:01:39;;;;;;;9.60;2.92;;;11.30;99.90;;;;;;5010248;28;20026;-77
2022/10/02 03:04:05;;;;;;;8.85;2.75;;;11.30;99.90;;;;;;5007771;28;20030;-77
2022/10/02 03:06:37;;;;;;;8.85;3.10;;;11.30;99.90;;;;;;5004026;28;20129;-77
2022/10/02 03:09:06;;;;;;;7.55;2.75;;;11.30;99.90;;;;;;5008505;28;20041;-77
2022/10/02 03:11:36;;;;;;;12.60;2.63;;;11.30;99.90;;;;;;5007003;28;20030;-77
2022/10/02 03:14:23;;;;;;;12.13;2.75;;;11.30;99.90;;;;;;4991746;28;20022;-77
2022/10/02 03:17:09;;;;;;;7.50;2.30;;;11.30;99.90;;;;;;5005774;28;20026;-77
2022/10/02 03:19:35;;;;;;;6.25;2.10;;;11.30;99.90;;;;;;5008648;28;20420;-77
2022/10/02 03:22:29;;;;;;;6.95;2.63;;;11.30;99.90;;;;;;5008069;28;20148;-76
2022/10/02 03:24:54;;;;;;;9.30;2.75;;;11.30;99.90;;;;;;5008297;28;20101;-77
2022/10/02 03:27:30;;;;;;;17.88;2.75;;;11.30;99.90;;;;;;4979459;28;20040;-77
2022/10/02 03:30:06;;;;;;;9.63;2.67;;;11.30;99.90;;;;;;5009536;28;20033;-77
2022/10/02 03:32:33;;;;;;;7.35;2.20;;;11.30;99.90;;;;;;5006882;28;20040;-77
2022/10/02 03:35:01;;;;;;;9.60;2.60;;;11.20;99.90;;;;;;5008929;28;20025;-77
2022/10/02 03:37:28;;;;;;;9.05;2.75;;;11.20;99.90;;;;;;5009473;28;20026;-77
2022/10/02 03:39:57;;;;;;;12.88;2.97;;;11.20;99.90;;;;;;5009584;28;20136;-77
2022/10/02 03:42:26;;;;;;;12.43;3.13;;;11.20;99.90;;;;;;5008227;28;20117;-77
2022/10/02 03:44:52;;;;;;;8.57;2.40;;;11.10;99.90;;;;;;5024952;28;20501;-77
2022/10/02 03:47:17;;;;;;;9.57;2.28;;;11.10;99.90;;;;;;5007730;28;20045;-77
2022/10/02 03:49:43;;;;;;;8.52;2.60;;;11.10;99.90;;;;;;4979791;28;20030;-77
2022/10/02 03:52:17;;;;;;;11.07;2.63;;;11.10;99.90;;;;;;4987716;28;20037;-77
2022/10/02 03:54:44;;;;;;;11.50;2.70;;;11.10;99.90;;;;;;5005324;28;20022;-77
2022/10/02 03:57:16;;;;;;;10.90;2.63;;;11.10;99.90;;;;;;5006426;28;20034;-77
2022/10/02 03:59:55;;;;;;;10.93;3.30;;;11.10;99.90;;;;;;5004275;28;20025;-77
2022/10/02 04:02:33;;;;;;;8.48;2.80;;;11.00;99.90;;;;;;4991659;28;20050;-77
2022/10/02 04:05:14;;;;;;;6.32;2.38;;;11.00;99.90;;;;;;5005270;28;20037;-76
2022/10/02 04:07:44;;;;;;;14.55;2.75;;;11.00;99.90;;;;;;5007364;28;20457;-77
2022/10/02 04:10:18;;;;;;;15.55;3.10;;;10.90;99.90;;;;;;5005890;28;20466;-77
2022/10/02 04:12:49;;;;;;;8.70;2.88;;;10.90;99.90;;;;;;5005911;28;20116;-77
2022/10/02 04:15:52;;;;;;;11.77;3.08;;;10.90;99.90;;;;;;4990434;28;20464;-77
2022/10/02 04:18:31;;;;;;;8.90;2.58;;;10.90;99.90;;;;;;5005225;28;20041;-77
2022/10/02 04:21:11;;;;;;;8.80;2.60;;;10.90;99.90;;;;;;5008376;28;20109;-77
2022/10/02 04:24:01;;;;;;;8.30;2.67;;;10.90;99.90;;;;;;5001528;28;20038;-76
2022/10/02 04:26:32;;;;;;;8.88;2.95;;;10.80;99.90;;;;;;4998863;28;20073;-76
2022/10/02 04:29:05;;;;;;;;;;;10.80;99.90;;;;;;5008751;28;20113;-76
2022/10/02 04:31:31;;;;;;;9.05;2.55;;;10.80;99.90;;;;;;5005538;28;19971;-77
2022/10/02 04:34:02;;;;;;;9.77;2.35;;;10.80;99.90;;;;;;5006587;28;20710;-77
2022/10/02 04:36:46;;;;;;;5.95;2.50;;;10.80;99.90;;;;;;5007518;28;20092;-77
2022/10/02 04:39:21;;;;;;;8.45;2.47;;;10.80;99.90;;;;;;5005635;28;20029;-77
2022/10/02 04:42:09;;;;;;;9.82;2.75;;;10.80;99.90;;;;;;5005380;28;20032;-77
2022/10/02 04:45:00;;;;;;;9.38;2.75;;;10.80;99.90;;;;;;5007161;28;20033;-77
2022/10/02 04:48:01;;;;;;;8.63;2.60;;;10.70;99.90;;;;;;4979119;28;20038;-77
2022/10/02 04:50:59;;;;;;;9.82;3.13;;;10.80;99.90;;;;;;5011394;28;20038;-77
2022/10/02 04:53:50;;;;;;;12.10;3.60;;;10.70;99.90;;;;;;5019242;28;20042;-77
2022/10/02 04:56:42;;;;;;;12.37;4.53;;;10.70;99.90;;;;;;5005079;28;20100;-77
2022/10/02 04:59:15;;;;;;;13.20;3.45;;;10.80;99.90;;;;;;5008198;28;20026;-77
2022/10/02 05:01:44;;;;;;;17.52;3.80;;;10.70;99.90;;;;;;4996754;28;20066;-77
2022/10/02 05:04:28;;;;;;;13.40;3.75;;;10.80;99.90;;;;;;4998918;28;20040;-76
2022/10/02 05:07:20;;;;;;;11.02;3.05;;;10.80;99.90;;;;;;4996535;28;20025;-76
2022/10/02 05:10:11;;;;;;;10.88;3.65;;;10.80;99.90;;;;;;5005879;28;20037;-76
2022/10/02 05:13:00;;;;;;;9.55;3.05;;;10.80;99.90;;;;;;5005321;28;20529;-76
2022/10/02 05:15:38;;;;;;;9.48;3.67;;;10.80;99.90;;;;;;5020916;28;20034;-76
2022/10/02 05:18:44;;;;;;;10.27;3.08;;;10.80;99.90;;;;;;5007088;28;20109;-77
2022/10/02 05:21:33;;;;;;;13.63;3.83;;;10.90;99.90;;;;;;5008038;28;20387;-76
2022/10/02 05:24:27;;;;;;;11.43;3.80;;;10.80;99.90;;;;;;5006805;28;20030;-77
2022/10/02 05:27:25;;;;;;;10.45;3.80;;;10.80;99.90;;;;;;5005588;28;20026;-76
2022/10/02 05:30:05;;;;;;;11.85;3.83;;;10.80;99.90;;;;;;5000549;28;20045;-76
2022/10/02 05:32:39;;;;;;;11.35;4.22;;;10.80;99.90;;;;;;5006189;28;20026;-77
2022/10/02 05:35:40;;;;;;;11.65;5.00;;;10.80;99.90;;;;;;5009266;28;20491;-76
2022/10/02 05:38:48;;;;;;;12.07;4.82;;;10.80;99.90;;;;;;4994378;28;20026;-77
2022/10/02 05:41:23;;;;;;;9.38;3.80;;;10.70;99.90;;;;;;4986183;28;20026;-77
2022/10/02 05:44:02;;;;;;;9.68;4.35;;;10.70;99.90;;;;;;5007646;28;20080;-76
2022/10/02 05:46:49;;;;;;;12.85;4.85;;;10.70;99.90;;;;;;4997147;28;20565;-77
2022/10/02 05:49:19;;;;;;;10.60;4.03;;;10.80;99.90;;;;;;5025659;28;20042;-77
2022/10/02 05:52:13;;;;;;;17.77;4.18;;;10.80;99.90;;;;;;4991264;28;20034;-76
2022/10/02 05:54:52;;;;;;;12.15;4.68;;;10.80;99.90;;;;;;5001397;28;20616;-76
2022/10/02 05:57:41;;;;;;;10.32;3.97;;;10.90;99.90;;;;;;5007623;28;20038;-77
2022/10/02 06:00:23;;;;;;;17.30;4.90;;;10.90;99.90;;;;;;5004372;28;20069;-77
2022/10/02 06:03:18;;;;;;;13.70;4.65;;;11.00;99.90;;;;;;5010162;28;20038;-76
2022/10/02 06:06:09;;;;;;;16.73;5.32;;;11.10;99.90;;;;;;5007714;28;20572;-76
2022/10/02 06:08:49;;;;;;;9.30;4.27;;;11.10;99.90;;;;;;5011762;28;20104;-77
2022/10/02 06:11:19;;;;;;;14.25;4.45;;;11.40;99.90;;;;;;5015044;28;20042;-77
2022/10/02 06:14:03;;;;;;;15.32;4.65;;;11.30;99.90;;;;;;5012593;28;20026;-77
2022/10/02 06:16:33;;;;;;;16.75;4.05;;;11.30;99.90;;;;;;5010038;28;20639;-76
2022/10/02 06:19:09;;;;;;;13.48;4.38;;;11.20;99.90;;;;;;5010557;28;20030;-77
2022/10/02 06:21:47;;;;;;;14.77;4.97;;;11.20;99.90;;;;;;4991451;28;20041;-77
2022/10/02 06:24:22;;;;;;;15.07;4.13;;;11.20;99.90;;;;;;4981452;28;20108;-77
2022/10/02 06:27:09;;;;;;;10.93;4.00;;;11.20;99.90;;;;;;4988440;28;20105;-77
2022/10/02 06:29:51;;;;;;;11.23;3.80;;;11.20;99.90;;;;;;5005471;28;20030;-76
2022/10/02 06:32:31;;;;;;;13.70;3.47;;;11.20;99.90;;;;;;5022941;28;20053;-76
2022/10/02 06:34:57;;;;;;;13.10;3.05;;;11.20;99.90;;;;;;5010087;28;20057;-76
2022/10/02 06:37:56;;;;;;;11.02;2.75;;;11.20;99.90;;;;;;5008431;28;20074;-75
2022/10/02 06:40:51;;;;;;;8.55;2.50;;;11.30;99.90;;;;;;5003077;28;20075;-75
2022/10/02 06:43:39;;;;;;;7.28;2.00;;;11.20;99.90;;;;;;5008675;28;20038;-77
2022/10/02 06:46:35;;;;;;;8.90;2.20;;;11.20;99.90;;;;;;5012118;28;20037;-77
2022/10/02 06:49:13;;;;;;;4.40;1.65;;;11.30;99.90;;;;;;5009444;28;20030;-77
2022/10/02 06:52:01;;;;;;;7.55;2.10;;;11.30;99.90;;;;;;5005099;28;20049;-77
2022/10/02 06:54:48;;;;;;;11.75;2.38;;;11.30;99.90;;;;;;5002549;28;20076;-76
2022/10/02 06:57:28;;;;;;;6.72;2.13;;;11.30;99.90;;;;;;5010267;28;20089;-77
2022/10/02 06:59:57;;;;;;;9.05;1.80;;;11.30;99.90;;;;;;4988142;28;20025;-77
2022/10/02 07:02:32;;;;;;;5.75;1.90;;;11.30;99.90;;;;;;5007566;28;20382;-76
2022/10/02 07:05:27;;;;;;;9.95;2.05;;;11.30;99.90;;;;;;5009336;28;20045;-76
2022/10/02 07:07:53;;;;;;;10.68;2.83;;;11.20;99.90;;;;;;5018029;28;20022;-76
2022/10/02 07:10:34;;;;;;;7.05;2.17;;;11.30;99.90;;;;;;5004735;28;20513;-77
2022/10/02 07:13:01;;;;;;;;;;;11.30;99.90;;;;;;5011251;28;20093;-76
2022/10/02 07:15:30;;;;;;;6.30;2.20;;;11.30;99.90;;;;;;5007323;28;19919;-76
2022/10/02 07:18:21;;;;;;;13.07;2.58;;;11.30;99.90;;;;;;5009338;28;20114;-75
2022/10/02 07:20:57;;;;;;;11.88;2.78;;;11.40;99.90;;;;;;5022731;28;20619;-76
2022/10/02 07:23:54;;;;;;;9.55;2.50;;;11.50;99.90;;;;;;5012235;28;20548;-76
2022/10/02 07:26:32;;;;;;;8.25;2.65;;;11.60;99.90;;;;;;5020954;28;20030;-76
2022/10/02 07:29:07;;;;;;;8.98;2.22;;;11.70;99.90;;;;;;5019507;28;20529;-76
2022/10/02 07:31:45;;;;;;;11.32;2.67;;;11.80;99.90;;;;;;5012210;28;20034;-75
2022/10/02 07:34:16;;;;;;;9.93;2.80;;;11.80;99.90;;;;;;4997787;28;20809;-75
2022/10/02 07:36:48;;;;;;;9.85;2.42;;;11.80;99.90;;;;;;5005117;28;20037;-76
2022/10/02 07:39:51;;;;;;;8.13;2.63;;;11.90;99.90;;;;;;5005025;28;20025;-76
2022/10/02 07:42:42;;;;;;;7.82;2.58;;;11.80;99.90;;;;;;4990262;28;20046;-75
2022/10/02 07:45:20;;;;;;;9.18;3.10;;;11.80;99.90;;;;;;5004770;28;20513;-76
2022/10/02 07:48:41;;;;;;;15.68;2.95;;;11.70;99.90;;;;;;5006211;28;20038;-76
2022/10/02 07:54:52;;;;;;;8.73;2.85;;;11.70;99.90;;;;;;5005782;28;20137;-76
2022/10/02 07:57:44;;;;;;;10.93;2.40;;;11.70;99.90;;;;;;5016750;28;20069;-78
2022/10/02 08:00:16;;;;;;;7.80;2.65;;;11.70;99.90;;;;;;5006590;28;20034;-77
2022/10/02 08:03:05;;;;;;;13.00;3.42;;;11.70;99.90;;;;;;5017106;28;20037;-76
2022/10/02 08:05:48;;;;;;;9.57;2.50;;;11.80;99.90;;;;;;5005882;28;20113;-78
2022/10/02 08:08:20;;;;;;;11.27;2.20;;;11.80;99.90;;;;;;5000954;28;20029;-75
2022/10/02 08:10:50;;;;;;;8.50;2.83;;;11.70;99.90;;;;;;5005916;28;20037;-76
2022/10/02 08:13:33;;;;;;;9.93;3.43;;;11.70;99.90;;;;;;4991993;28;20030;-77
2022/10/02 08:16:03;;;;;;;8.70;2.47;;;11.70;99.90;;;;;;5008840;28;20030;-76
2022/10/02 08:18:35;;;;;;;8.27;3.03;;;11.70;99.90;;;;;;5019332;28;20433;-76
2022/10/02 08:21:01;;;;;;;;;;;11.80;99.90;;;;;;5007473;28;20026;-77
2022/10/02 08:23:51;;;;;;;13.20;3.35;;;11.80;99.90;;;;;;4988880;28;20278;-75
2022/10/02 08:26:20;;;;;;;10.90;3.22;;;12.00;99.90;;;;;;5022436;28;20105;-76
2022/10/02 08:28:56;;;;;;;8.55;3.22;;;12.20;99.90;;;;;;4987243;28;20038;-77
2022/10/02 08:31:23;;;;;;;8.88;3.00;;;12.30;99.90;;;;;;5007440;28;20030;-77
2022/10/02 08:33:50;;;;;;;5.55;2.30;;;12.40;99.90;;;;;;5006686;28;20030;-78
2022/10/02 08:36:31;;;;;;;8.10;2.25;;;12.50;99.90;;;;;;5005583;28;20100;-77
2022/10/02 08:39:06;;;;;;;7.10;1.95;;;12.40;99.90;;;;;;5004401;28;20034;-77
2022/10/02 08:41:58;;;;;;;9.98;2.55;;;12.40;99.90;;;;;;4988592;28;20034;-76
2022/10/02 08:44:47;;;;;;;9.27;3.00;;;12.40;99.90;;;;;;5022052;28;20109;-76
2022/10/02 08:47:57;;;;;;;9.52;3.20;;;12.30;99.90;;;;;;5007213;28;20029;-76
2022/10/02 08:50:48;;;;;;;10.52;3.20;;;12.30;99.90;;;;;;5004716;28;20037;-75
2022/10/02 08:53:17;;;;;;;;;;;12.30;99.90;;;;;;5008012;28;20109;-76
2022/10/02 08:56:20;;;;;;;9.80;2.53;;;12.30;99.90;;;;;;5002608;28;20000;-76
2022/10/02 08:59:17;;;;;;;9.32;2.60;;;12.30;99.90;;;;;;4976210;28;20621;-76
2022/10/02 09:02:10;;;;;;;12.32;3.10;;;12.30;99.90;;;;;;5002653;28;20026;-76
2022/10/02 09:04:50;;;;;;;8.10;3.17;;;12.30;99.90;;;;;;4988152;28;20049;-76
2022/10/02 09:07:55;;;;;;;17.80;3.08;;;12.40;99.90;;;;;;5001782;28;20105;-77
2022/10/02 09:10:49;;;;;;;13.18;2.97;;;12.40;99.90;;;;;;5004928;28;20483;-76
2022/10/02 09:13:41;;;;;;;10.07;3.17;;;12.50;99.90;;;;;;4992307;28;20046;-77
2022/10/02 09:16:24;;;;;;;9.93;2.80;;;12.60;99.90;;;;;;4988854;28;20018;-77
2022/10/02 09:18:59;;;;;;;6.88;2.50;;;12.60;99.90;;;;;;5012799;28;20733;-77
2022/10/02 09:21:32;;;;;;;16.20;3.63;;;12.60;99.90;;;;;;4996845;28;20045;-76
2022/10/02 09:24:19;;;;;;;12.52;3.17;;;12.50;99.90;;;;;;5020321;28;20037;-77
2022/10/02 09:26:58;;;;;;;15.07;3.35;;;12.50;99.90;;;;;;5004194;28;20041;-77
2022/10/02 09:29:57;;;;;;;14.00;3.67;;;12.50;99.90;;;;;;5024447;28;20128;-77
2022/10/02 09:32:33;;;;;;;15.50;3.58;;;12.40;99.90;;;;;;5009334;28;20050;-77
2022/10/02 09:35:21;;;;;;;11.45;3.08;;;12.40;99.90;;;;;;4997587;28;20036;-76
2022/10/02 09:38:26;;;;;;;11.85;3.55;;;12.40;99.90;;;;;;5011021;28;20058;-76
2022/10/02 09:41:26;;;;;;;11.95;3.15;;;12.50;99.90;;;;;;5002441;28;20492;-77
2022/10/02 09:44:30;;;;;;;11.10;2.85;;;12.60;99.90;;;;;;5000063;28;20033;-76
2022/10/02 09:47:07;;;;;;;13.20;3.50;;;12.80;99.90;;;;;;5013753;28;20143;-78
2022/10/02 09:49:41;;;;;;;12.80;2.28;;;12.90;99.90;;;;;;4994848;28;20127;-77
2022/10/02 09:52:34;;;;;;;10.80;2.45;;;12.90;99.90;;;;;;5017617;28;20505;-77
2022/10/02 09:55:37;;;;;;;10.35;1.83;;;13.00;99.90;;;;;;5001098;28;20034;-76
2022/10/02 09:58:32;;;;;;;7.30;1.98;;;12.90;99.90;;;;;;5009026;28;20026;-76
2022/10/02 10:01:08;;;;;;;5.85;2.03;;;12.90;99.90;;;;;;5006630;28;20042;-76
2022/10/02 10:03:56;;;;;;;7.28;2.30;;;12.90;99.90;;;;;;5007873;28;20038;-77
2022/10/02 10:06:51;;;;;;;9.57;2.50;;;12.80;99.90;;;;;;4997335;28;20092;-79
2022/10/02 10:09:55;;;;;;;7.45;2.15;;;12.90;99.90;;;;;;5005642;28;20042;-76
2022/10/02 10:12:24;;;;;;;9.18;2.67;;;12.90;99.90;;;;;;5012559;28;20026;-77
2022/10/02 10:14:58;;;;;;;8.48;1.98;;;13.00;99.90;;;;;;5009994;28;20030;-76
2022/10/02 10:17:55;;;;;;;5.95;1.90;;;13.00;99.90;;;;;;5007153;28;20030;-77
2022/10/02 10:20:59;;;;;;;6.75;2.10;;;13.10;99.90;;;;;;5004772;28;20026;-76
2022/10/02 10:23:56;;;;;;;11.25;3.72;;;13.10;99.90;;;;;;5001562;28;20120;-74
2022/10/02 10:26:47;;;;;;;13.85;3.13;;;13.10;99.90;;;;;;5018681;28;20527;-73
2022/10/02 10:29:37;;;;;;;9.02;2.17;;;13.10;99.90;;;;;;5013415;28;20033;-77
2022/10/02 10:32:14;;;;;;;8.02;2.40;;;13.20;99.90;;;;;;4991120;28;20095;-75
2022/10/02 10:34:56;;;;;;;6.95;1.88;;;13.30;99.90;;;;;;5004726;28;20029;-71
2022/10/02 10:40:46;;;;;;;12.75;2.15;;;13.60;99.90;;;;;;5007330;28;20274;-75
2022/10/02 10:43:35;;;;;;;12.52;2.10;;;13.70;99.90;;;;;;4998228;28;20038;-76
2022/10/02 10:46:13;;;;;;;10.10;2.67;;;13.70;99.90;;;;;;4995485;28;20021;-78
2022/10/02 10:48:50;;;;;;;13.50;2.40;;;13.90;99.90;;;;;;5004358;28;20026;-78
2022/10/02 10:51:29;;;;;;;13.00;2.95;;;14.50;99.90;;;;;;5009779;28;20074;-74
2022/10/02 10:54:23;;;;;;;11.45;2.22;;;14.80;99.90;;;;;;5010052;28;20105;-74
2022/10/02 10:57:37;;;;;;;8.88;2.13;;;15.00;99.90;;;;;;5003743;28;20516;-72
2022/10/02 11:00:18;;;;;;;14.68;2.70;;;15.50;99.90;;;;;;5006474;28;20497;-76
2022/10/02 11:02:57;;;;;;;;;;;16.30;99.90;;;;;;5024295;28;20084;-76
2022/10/02 11:05:58;;;;;;;7.60;2.00;;;16.80;99.90;;;;;;5011484;28;19920;-77
2022/10/02 11:08:26;;;;;;;9.50;2.92;;;17.00;99.90;;;;;;5030842;28;20111;-81
2022/10/02 11:11:20;;;;;;;11.30;1.98;;;16.70;99.90;;;;;;4987625;28;20034;-81
2022/10/02 11:14:14;;;;;;;8.55;2.83;;;16.60;99.90;;;;;;4991768;28;20033;-80
2022/10/02 11:17:18;;;;;;;10.05;2.40;;;16.20;99.90;;;;;;5004842;28;20018;-79
2022/10/02 11:19:49;;;;;;;11.90;2.70;;;16.20;99.90;;;;;;4986728;28;20022;-79
2022/10/02 11:22:36;;;;;;;10.43;2.50;;;16.20;99.90;;;;;;5008808;28;20489;-76
2022/10/02 11:25:09;;;;;;;15.25;4.95;;;15.90;99.90;;;;;;5005624;28;20033;-76
2022/10/02 11:28:06;;;;;;;19.60;5.90;;;15.70;99.90;;;;;;4992296;28;20409;-74
2022/10/02 11:30:52;;;;;;;13.25;3.17;;;15.70;99.90;;;;;;5008118;28;20041;-73
2022/10/02 11:33:43;;;;;;;10.75;2.08;;;15.60;99.90;;;;;;5007635;28;20068;-72
2022/10/02 11:36:46;;;;;;;10.30;2.20;;;15.70;99.90;;;;;;5010770;28;20032;-77
2022/10/02 11:40:03;;;;;;;13.50;2.88;;;15.80;99.90;;;;;;5002356;28;20117;-76
2022/10/02 11:42:44;;;;;;;10.38;2.80;;;15.60;99.90;;;;;;4994979;28;20038;-73
2022/10/02 11:45:38;;;;;;;10.40;3.17;;;15.60;99.90;;;;;;5006736;28;20026;-73
2022/10/02 11:48:11;;;;;;;8.18;1.90;;;15.60;99.90;;;;;;5020303;28;20030;-78
2022/10/02 11:50:45;;;;;;;11.13;2.00;;;15.50;99.90;;;;;;5005885;28;20049;-77
2022/10/02 11:53:34;;;;;;;12.02;2.55;;;15.50;99.90;;;;;;5008876;28;20389;-77
2022/10/02 11:56:16;;;;;;;10.77;2.65;;;15.40;99.90;;;;;;5002895;28;20425;-76
2022/10/02 11:58:58;;;;;;;10.38;2.65;;;15.30;99.90;;;;;;5007163;28;20026;-76
2022/10/02 12:01:44;;;;;;;13.15;2.78;;;15.30;99.90;;;;;;5002876;28;20026;-77
2022/10/02 12:04:53;;;;;;;12.82;2.95;;;15.20;99.90;;;;;;4999475;28;20013;-76
2022/10/02 12:07:34;;;;;;;11.85;2.78;;;15.10;99.90;;;;;;5016747;28;20022;-77
2022/10/02 12:10:17;;;;;;;10.27;2.45;;;15.00;99.90;;;;;;4997863;28;20034;-76
2022/10/02 12:13:02;;;;;;;9.50;1.75;;;15.00;99.90;;;;;;5010774;28;20075;-77
2022/10/02 12:15:41;;;;;;;8.15;2.33;;;14.90;99.90;;;;;;5008126;28;20096;-77
2022/10/02 12:18:16;;;;;;;14.18;2.53;;;14.90;99.90;;;;;;5025101;28;20064;-76
2022/10/02 12:27:14;;;;;;;9.68;2.17;;;14.90;99.90;;;;;;5007513;28;20033;-77
2022/10/02 12:30:06;;;;;;;15.32;2.55;;;14.90;99.90;;;;;;5006155;28;20493;-77
2022/10/02 12:32:49;;;;;;;10.25;2.10;;;14.90;99.90;;;;;;5008940;28;20042;-76
2022/10/02 12:35:44;;;;;;;12.23;2.10;;;14.80;99.90;;;;;;5008675;28;20100;-77
2022/10/02 12:38:41;;;;;;;12.40;2.63;;;14.70;99.90;;;;;;5007283;28;20030;-76
2022/10/02 12:41:51;;;;;;;11.65;2.85;;;14.70;99.90;;;;;;5007006;28;20021;-77
2022/10/02 12:44:57;;;;;;;13.85;2.47;;;14.60;99.90;;;;;;4997192;28;20107;-77
2022/10/02 12:47:56;;;;;;;16.00;2.42;;;14.60;99.90;;;;;;4992888;28;20345;-76
2022/10/02 12:50:32;;;;;;;11.50;2.03;;;14.60;99.90;;;;;;5007947;28;20029;-77
2022/10/02 12:53:29;;;;;;;11.00;2.40;;;14.60;99.90;;;;;;5004927;28;20378;-76
2022/10/02 12:56:05;;;;;;;15.00;3.00;;;14.60;99.90;;;;;;5008264;28;20332;-78
2022/10/02 12:59:02;;;;;;;13.20;2.67;;;14.60;99.90;;;;;;5007902;28;20025;-78
2022/10/02 13:02:15;;;;;;;15.98;2.78;;;14.60;99.90;;;;;;5009554;28;20109;-79
2022/10/02 13:04:49;;;;;;;11.68;2.35;;;14.70;99.90;;;;;;5009223;28;20056;-77
2022/10/02 13:07:37;;;;;;;15.52;2.35;;;14.90;99.90;;;;;;5012215;28;20058;-77
2022/10/02 13:10:23;;;;;;;14.82;2.50;;;15.00;99.90;;;;;;4990415;28;20036;-77
2022/10/02 13:13:08;;;;;;;14.20;2.45;;;15.10;99.90;;;;;;5020756;28;20113;-78
2022/10/02 13:15:42;;;;;;;16.05;2.70;;;15.30;99.90;;;;;;5024609;28;20025;-76
2022/10/02 13:18:17;;;;;;;13.18;3.20;;;15.60;99.90;;;;;;5001090;28;20022;-77
2022/10/02 13:21:17;;;;;;;13.98;3.22;;;15.60;99.90;;;;;;5016668;28;20030;-78
2022/10/02 13:23:52;;;;;;;15.00;2.35;;;15.40;99.90;;;;;;4980684;28;20448;-76
2022/10/02 13:26:29;;;;;;;25.48;3.03;;;15.30;99.90;;;;;;4999271;28;20045;-76
2022/10/02 13:29:19;;;;;;;13.50;2.78;;;15.20;99.90;;;;;;4995613;28;20116;-76
2022/10/02 13:31:47;;;;;;;18.85;2.95;;;15.10;99.90;;;;;;5006726;28;20042;-77
2022/10/02 13:34:28;;;;;;;14.25;2.20;;;15.10;99.90;;;;;;5016219;28;20371;-77
2022/10/02 13:37:06;;;;;;;14.35;2.95;;;15.10;99.90;;;;;;5006089;28;20029;-77
2022/10/02 13:39:51;;;;;;;14.25;2.58;;;15.10;99.90;;;;;;5000023;28;20115;-78
2022/10/02 13:42:42;;;;;;;23.50;3.05;;;15.10;99.90;;;;;;5009331;28;20386;-77
2022/10/02 13:45:36;;;;;;;24.97;2.90;;;15.00;99.90;;;;;;4982419;28;20026;-77
2022/10/02 13:48:23;;;;;;;18.38;2.78;;;15.00;99.90;;;;;;4990091;28;20030;-77
2022/10/02 13:51:07;;;;;;;15.90;3.55;;;15.00;99.90;;;;;;4992657;28;20457;-79
2022/10/02 13:53:39;;;;;;;18.55;2.80;;;14.90;99.90;;;;;;5022868;28;20324;-77
2022/10/02 13:56:42;;;;;;;16.67;2.92;;;15.00;99.90;;;;;;4998953;28;20026;-77
2022/10/02 13:59:36;;;;;;;14.88;2.53;;;15.00;99.90;;;;;;5006163;28;20036;-77
2022/10/02 14:02:16;;;;;;;15.45;2.78;;;14.90;99.90;;;;;;5005040;28;20038;-76
2022/10/02 14:05:17;;;;;;;14.70;2.70;;;14.90;99.90;;;;;;4999171;28;20029;-77
2022/10/02 14:08:10;;;;;;;17.70;3.03;;;14.90;99.90;;;;;;5006294;28;20852;-77
2022/10/02 14:11:17;;;;;;;20.55;2.42;;;14.90;99.90;;;;;;5003475;28;20026;-75
2022/10/02 14:14:04;;;;;;;16.77;2.50;;;15.00;99.90;;;;;;5007233;28;20022;-75
2022/10/02 14:16:56;;;;;;;10.68;3.20;;;15.20;99.90;;;;;;5001614;28;20034;-74